Time;durP1;ratioP1;P1;durP2;ratioP2;P2;SDS_P1;SDS_P2;PMS_P1;PMS_P2;Temp;Humidity;BMP_temperature;BMP_pressure;BME280_temperature;BME280_humidity;BME280_pressure;Samples;Min_cycle;Max_cycle;Signal;HPM_P1;HPM_P2
2023/01/12 00:01:11;;;;;;;11.05;6.63;;;;;;;;;;20927424;28;20058;-61
2023/01/12 00:11:14;;;;;;;14.68;7.60;;;;;;;;;;20927174;28;20053;-65
2023/01/12 00:21:16;;;;;;;11.10;6.65;;;;;;;;;;20925630;28;20095;-62
2023/01/12 00:31:18;;;;;;;12.10;7.35;;;;;;;;;;20924655;28;20048;-68
2023/01/12 00:51:41;;;;;;;14.68;6.82;;;;;;;;;;20922825;28;20052;-65
2023/01/12 01:01:43;;;;;;;10.13;5.90;;;;;;;;;;20923485;28;20076;-64
2023/01/12 01:11:45;;;;;;;16.73;6.95;;;;;;;;;;20922047;28;20513;-64
2023/01/12 01:21:54;;;;;;;12.90;7.78;;;;;;;;;;20920207;28;20505;-62
2023/01/12 01:31:56;;;;;;;9.20;6.10;;;;;;;;;;20920018;28;20045;-65
2023/01/12 01:41:59;;;;;;;9.82;5.57;;;;;;;;;;20919971;28;20049;-72
2023/01/12 01:52:22;;;;;;;8.30;5.15;;;;;;;;;;20918538;28;20053;-71
2023/01/12 02:02:24;;;;;;;8.25;5.15;;;;;;;;;;20916830;28;20088;-71
2023/01/12 02:23:13;;;;;;;11.00;6.00;;;;;;;;;;20915761;28;20068;-72
2023/01/12 02:33:28;;;;;;;25.17;10.25;;;;;;;;;;20894454;28;20481;-71
2023/01/12 02:43:49;;;;;;;8.85;5.18;;;;;;;;;;20915868;28;20489;-71
2023/01/12 02:53:54;;;;;;;9.18;5.47;;;;;;;;;;20913279;28;20186;-67
2023/01/12 03:04:17;;;;;;;8.15;5.28;;;;;;;;;;20914125;28;20413;-66
2023/01/12 03:14:22;;;;;;;7.28;4.63;;;;;;;;;;20912736;28;20053;-72
2023/01/12 03:24:27;;;;;;;8.50;5.32;;;;;;;;;;20912747;28;20061;-72
2023/01/12 03:34:32;;;;;;;8.77;5.55;;;;;;;;;;20911918;28;20060;-70
2023/01/12 03:44:45;;;;;;;7.40;4.05;;;;;;;;;;20911905;28;20045;-72
2023/01/12 03:54:49;;;;;;;8.77;5.53;;;;;;;;;;20911433;28;20089;-66
2023/01/12 04:04:52;;;;;;;10.07;5.68;;;;;;;;;;20912299;28;20045;-67
2023/01/12 04:14:56;;;;;;;11.65;5.20;;;;;;;;;;20911131;28;20057;-65
2023/01/12 04:25:19;;;;;;;6.53;4.28;;;;;;;;;;20920395;28;20060;-71
2023/01/12 04:35:27;;;;;;;6.37;4.00;;;;;;;;;;20925145;28;20438;-72
2023/01/12 04:45:42;;;;;;;7.15;4.05;;;;;;;;;;20923939;28;20071;-67
2023/01/12 04:55:48;;;;;;;6.45;4.20;;;;;;;;;;20922599;28;20052;-72
2023/01/12 05:06:01;;;;;;;6.65;4.13;;;;;;;;;;20924405;28;20397;-69
2023/01/12 05:16:09;;;;;;;7.13;4.55;;;;;;;;;;20921227;28;20057;-70
2023/01/12 05:26:30;;;;;;;7.63;4.10;;;;;;;;;;20922439;28;20432;-66
2023/01/12 05:36:46;;;;;;;6.53;4.15;;;;;;;;;;20919776;28;20045;-69
2023/01/12 05:46:51;;;;;;;7.80;4.15;;;;;;;;;;20919896;28;20476;-71
2023/01/12 05:56:58;;;;;;;6.95;3.72;;;;;;;;;;20918297;28;20053;-71
2023/01/12 06:07:01;;;;;;;6.80;3.75;;;;;;;;;;20918342;28;20067;-69
2023/01/12 06:17:23;;;;;;;6.88;4.10;;;;;;;;;;20916635;28;20056;-71
2023/01/12 06:27:44;;;;;;;5.80;3.88;;;;;;;;;;20916241;28;20056;-71
2023/01/12 06:37:56;;;;;;;7.97;4.10;;;;;;;;;;20915316;28;20049;-71
2023/01/12 06:48:07;;;;;;;7.10;4.28;;;;;;;;;;20914411;28;20044;-71
2023/01/12 06:58:17;;;;;;;6.30;4.17;;;;;;;;;;20914069;28;20064;-71
2023/01/12 07:08:19;;;;;;;13.02;5.93;;;;;;;;;;20914347;28;20097;-70
2023/01/12 07:18:22;;;;;;;9.23;5.43;;;;;;;;;;20913227;28;20057;-71
2023/01/12 07:28:25;;;;;;;9.90;5.43;;;;;;;;;;20912622;28;20049;-71
2023/01/12 07:38:28;;;;;;;7.70;4.38;;;;;;;;;;20912438;28;20476;-71
2023/01/12 07:48:32;;;;;;;7.65;4.40;;;;;;;;;;20912218;28;20049;-72
2023/01/12 07:58:34;;;;;;;10.48;4.72;;;;;;;;;;20919398;28;20053;-74
2023/01/12 08:08:36;;;;;;;11.10;4.55;;;;;;;;;;20927141;28;20045;-71
2023/01/12 08:18:52;;;;;;;7.40;4.57;;;;;;;;;;20926033;28;20512;-70
2023/01/12 08:29:02;;;;;;;20.70;6.68;;;;;;;;;;20925847;28;20049;-71
2023/01/12 08:39:05;;;;;;;;;;;;;;;;;;20925661;28;20057;-66
2023/01/12 08:49:10;;;;;;;7.78;4.78;;;;;;;;;;20923925;28;19967;-68
2023/01/12 08:59:12;;;;;;;10.25;5.70;;;;;;;;;;20923699;28;20683;-71
2023/01/12 09:09:17;;;;;;;15.10;6.25;;;;;;;;;;20922499;28;20481;-71
2023/01/12 09:19:19;;;;;;;8.90;4.70;;;;;;;;;;20921827;28;20102;-72
2023/01/12 09:29:21;;;;;;;12.40;5.50;;;;;;;;;;20921203;28;20084;-72
2023/01/12 09:39:23;;;;;;;5.68;3.58;;;;;;;;;;20919258;28;20053;-72
2023/01/12 09:49:31;;;;;;;8.50;3.70;;;;;;;;;;20922257;28;20481;-71
2023/01/12 09:59:33;;;;;;;10.13;3.78;;;;;;;;;;20922313;28;20481;-70
2023/01/12 10:09:36;;;;;;;10.40;4.30;;;;;;;;;;20942660;28;20049;-73
2023/01/12 10:19:38;;;;;;;46.35;18.17;;;;;;;;;;20929373;28;20075;-72
2023/01/12 10:29:40;;;;;;;12.90;4.70;;;;;;;;;;20916873;28;20560;-73
2023/01/12 10:39:51;;;;;;;12.25;4.25;;;;;;;;;;20915390;28;20045;-72
2023/01/12 10:50:11;;;;;;;8.63;4.07;;;;;;;;;;20912786;28;20405;-72
2023/01/12 11:00:20;;;;;;;11.40;4.53;;;;;;;;;;20914493;28;20134;-71
2023/01/12 11:10:34;;;;;;;11.00;4.43;;;;;;;;;;20913281;28;20107;-72
2023/01/12 11:20:46;;;;;;;6.38;3.00;;;;;;;;;;20911992;28;20053;-62
2023/01/12 11:30:59;;;;;;;9.70;3.30;;;;;;;;;;20918309;28;20501;-76
2023/01/12 11:41:03;;;;;;;8.40;4.38;;;;;;;;;;20929173;28;20045;-75
2023/01/12 11:51:07;;;;;;;11.48;4.78;;;;;;;;;;20928341;28;20053;-66
2023/01/12 12:01:27;;;;;;;7.55;4.03;;;;;;;;;;20927071;28;20190;-72
2023/01/12 12:11:48;;;;;;;7.70;3.60;;;;;;;;;;20927462;28;20053;-61
2023/01/12 12:21:56;;;;;;;8.18;3.50;;;;;;;;;;20924895;28;20110;-67
2023/01/12 12:32:13;;;;;;;7.85;3.38;;;;;;;;;;20924830;28;20088;-66
2023/01/12 12:52:55;;;;;;;;;;;;;;;;;;20514211;28;20462;-69
2023/01/12 13:02:58;;;;;;;7.47;4.28;;;;;;;;;;20516390;28;20346;-65
2023/01/12 13:13:21;;;;;;;13.77;5.00;;;;;;;;;;20507786;28;20126;-67
2023/01/12 13:23:43;;;;;;;10.35;4.90;;;;;;;;;;20589940;28;20057;-63
2023/01/12 13:33:45;;;;;;;11.48;4.55;;;;;;;;;;20838118;28;20159;-63
2023/01/12 13:43:50;;;;;;;9.25;5.10;;;;;;;;;;20837041;28;20092;-65
2023/01/12 13:54:03;;;;;;;9.23;4.35;;;;;;;;;;20835949;28;20054;-65
2023/01/12 14:04:14;;;;;;;11.13;4.90;;;;;;;;;;20835737;28;20046;-63
2023/01/12 14:24:47;;;;;;;8.38;4.55;;;;;;;;;;20501951;29;20051;-67
2023/01/12 14:34:51;;;;;;;7.72;4.20;;;;;;;;;;20501576;29;20082;-64
2023/01/12 14:55:18;;;;;;;7.40;4.70;;;;;;;;;;20576300;28;20069;-63
2023/01/12 15:05:25;;;;;;;11.98;4.18;;;;;;;;;;20830748;28;20049;-63
2023/01/12 15:25:51;;;;;;;5.65;2.70;;;;;;;;;;20831017;28;20429;-68
2023/01/12 15:35:52;;;;;;;8.50;3.00;;;;;;;;;;20829670;28;20060;-62
2023/01/12 15:45:55;;;;;;;6.60;3.70;;;;;;;;;;20830785;28;20434;-65
2023/01/12 15:55:56;;;;;;;12.73;5.88;;;;;;;;;;20829259;28;20053;-64
2023/01/12 16:05:58;;;;;;;8.93;3.83;;;;;;;;;;20829159;28;20045;-61
2023/01/12 16:16:00;;;;;;;9.30;4.47;;;;;;;;;;20830240;28;20053;-66
2023/01/12 16:26:01;;;;;;;11.70;4.05;;;;;;;;;;20844235;28;20502;-61
2023/01/12 16:36:04;;;;;;;6.90;4.03;;;;;;;;;;20843042;28;20057;-63
2023/01/12 16:46:06;;;;;;;7.22;3.85;;;;;;;;;;20843684;28;20409;-67
2023/01/12 16:56:12;;;;;;;10.80;5.13;;;;;;;;;;20841348;28;20159;-62
2023/01/12 17:06:17;;;;;;;14.20;6.45;;;;;;;;;;20840180;28;20112;-64
2023/01/12 17:16:19;;;;;;;14.23;7.03;;;;;;;;;;20839351;28;20057;-64
2023/01/12 17:26:21;;;;;;;9.88;5.90;;;;;;;;;;20838166;28;20526;-64
2023/01/12 17:36:24;;;;;;;12.02;5.05;;;;;;;;;;20838012;28;20045;-67
2023/01/12 17:46:26;;;;;;;15.45;8.25;;;;;;;;;;20838068;28;20045;-67
2023/01/12 17:56:30;;;;;;;10.75;5.15;;;;;;;;;;20836648;28;20049;-63
2023/01/12 18:06:32;;;;;;;13.35;5.00;;;;;;;;;;20835801;28;20100;-67
2023/01/12 18:16:35;;;;;;;9.02;4.78;;;;;;;;;;20833539;28;20099;-65
2023/01/12 18:26:37;;;;;;;8.98;3.95;;;;;;;;;;20834170;28;20128;-63
2023/01/12 18:36:40;;;;;;;11.73;5.57;;;;;;;;;;20832149;28;20054;-64
2023/01/12 18:57:03;;;;;;;14.30;5.75;;;;;;;;;;20830471;28;20060;-63
2023/01/12 19:07:05;;;;;;;9.32;4.80;;;;;;;;;;20830023;28;20041;-66
2023/01/12 19:17:26;;;;;;;9.60;5.15;;;;;;;;;;20829574;28;20127;-68
2023/01/12 19:37:49;;;;;;;14.10;6.18;;;;;;;;;;20828131;28;20050;-63
2023/01/12 19:47:52;;;;;;;35.03;15.05;;;;;;;;;;20809737;28;20045;-63
2023/01/12 19:57:53;;;;;;;17.45;7.32;;;;;;;;;;20842828;28;20065;-64
2023/01/12 20:07:55;;;;;;;14.18;6.57;;;;;;;;;;20847012;28;20050;-64
2023/01/12 20:17:58;;;;;;;18.95;7.30;;;;;;;;;;20840908;28;20150;-63
2023/01/12 20:28:01;;;;;;;16.35;8.25;;;;;;;;;;20841070;28;20095;-68
2023/01/12 20:38:05;;;;;;;17.65;7.97;;;;;;;;;;20840660;28;20085;-62
2023/01/12 20:48:07;;;;;;;17.40;8.05;;;;;;;;;;20841086;28;20463;-66
2023/01/12 20:58:10;;;;;;;14.57;8.02;;;;;;;;;;20844634;28;20132;-65
2023/01/12 21:08:13;;;;;;;19.88;9.77;;;;;;;;;;20840641;28;20104;-68
2023/01/12 21:18:14;;;;;;;15.98;8.45;;;;;;;;;;20837394;28;20053;-69
2023/01/12 21:28:17;;;;;;;15.88;8.52;;;;;;;;;;20837266;28;20055;-65
2023/01/12 21:38:19;;;;;;;21.35;10.38;;;;;;;;;;20835819;28;20057;-65
2023/01/12 21:48:22;;;;;;;27.30;11.27;;;;;;;;;;20836072;28;20379;-63
2023/01/12 21:58:25;;;;;;;19.30;9.45;;;;;;;;;;20835363;28;20053;-62
2023/01/12 22:08:26;;;;;;;18.42;9.23;;;;;;;;;;20832873;28;20055;-63
2023/01/12 22:18:29;;;;;;;28.63;13.55;;;;;;;;;;20831425;28;20413;-68
2023/01/12 22:28:34;;;;;;;25.00;11.95;;;;;;;;;;20832074;28;20127;-67
2023/01/12 22:38:36;;;;;;;22.02;10.38;;;;;;;;;;20831840;28;20065;-68
2023/01/12 22:48:39;;;;;;;20.98;10.55;;;;;;;;;;20831983;28;20053;-65
2023/01/12 22:58:44;;;;;;;19.50;10.13;;;;;;;;;;20831647;28;20057;-65
2023/01/12 23:08:46;;;;;;;25.23;11.63;;;;;;;;;;20830775;28;20045;-67
2023/01/12 23:18:49;;;;;;;31.92;12.95;;;;;;;;;;20830401;28;20085;-66
2023/01/12 23:28:55;;;;;;;31.33;11.80;;;;;;;;;;20829653;28;20048;-66
2023/01/12 23:38:58;;;;;;;23.77;11.52;;;;;;;;;;20830375;28;20049;-66
2023/01/12 23:49:01;;;;;;;29.75;13.57;;;;;;;;;;20830755;28;20401;-62
2023/01/12 23:59:03;;;;;;;29.65;12.98;;;;;;;;;;20829174;28;20053;-62
